sensor_id;sensor_type;location;lat;lon;timestamp;P1;durP1;ratioP1;P2;durP2;ratioP2
75054;SDS011;63636;44.746;10.488;2022-09-24T00:00:27;6.80;;;3.72;;
75054;SDS011;63636;44.746;10.488;2022-09-24T00:02:53;7.15;;;3.85;;
75054;SDS011;63636;44.746;10.488;2022-09-24T00:05:18;6.45;;;3.97;;
75054;SDS011;63636;44.746;10.488;2022-09-24T00:07:44;7.53;;;3.90;;
75054;SDS011;63636;44.746;10.488;2022-09-24T00:10:10;6.90;;;4.00;;
75054;SDS011;63636;44.746;10.488;2022-09-24T00:12:35;6.45;;;3.47;;
75054;SDS011;63636;44.746;10.488;2022-09-24T00:15:02;6.75;;;3.50;;
75054;SDS011;63636;44.746;10.488;2022-09-24T00:17:27;6.57;;;3.90;;
75054;SDS011;63636;44.746;10.488;2022-09-24T00:19:53;6.18;;;3.97;;
75054;SDS011;63636;44.746;10.488;2022-09-24T00:22:18;7.00;;;4.05;;
75054;SDS011;63636;44.746;10.488;2022-09-24T00:24:44;7.60;;;3.83;;
75054;SDS011;63636;44.746;10.488;2022-09-24T00:27:28;7.63;;;4.07;;
75054;SDS011;63636;44.746;10.488;2022-09-24T00:29:54;7.35;;;4.22;;
75054;SDS011;63636;44.746;10.488;2022-09-24T00:32:19;7.82;;;4.55;;
75054;SDS011;63636;44.746;10.488;2022-09-24T00:34:48;6.90;;;4.28;;
75054;SDS011;63636;44.746;10.488;2022-09-24T00:37:17;6.75;;;4.32;;
75054;SDS011;63636;44.746;10.488;2022-09-24T00:39:43;6.50;;;4.18;;
75054;SDS011;63636;44.746;10.488;2022-09-24T00:42:10;5.63;;;3.80;;
75054;SDS011;63636;44.746;10.488;2022-09-24T00:44:45;6.38;;;4.10;;
75054;SDS011;63636;44.746;10.488;2022-09-24T00:49:43;9.10;;;3.80;;
75054;SDS011;63636;44.746;10.488;2022-09-24T00:52:12;5.95;;;3.50;;
75054;SDS011;63636;44.746;10.488;2022-09-24T00:54:38;7.85;;;3.80;;
75054;SDS011;63636;44.746;10.488;2022-09-24T00:57:03;5.65;;;3.50;;
75054;SDS011;63636;44.746;10.488;2022-09-24T00:59:29;6.53;;;3.75;;
75054;SDS011;63636;44.746;10.488;2022-09-24T01:01:55;6.00;;;3.47;;
75054;SDS011;63636;44.746;10.488;2022-09-24T01:04:23;6.50;;;3.35;;
75054;SDS011;63636;44.746;10.488;2022-09-24T01:06:50;6.95;;;3.40;;
75054;SDS011;63636;44.746;10.488;2022-09-24T01:09:17;6.70;;;3.40;;
75054;SDS011;63636;44.746;10.488;2022-09-24T01:16:43;5.78;;;3.22;;
75054;SDS011;63636;44.746;10.488;2022-09-24T01:19:16;7.38;;;3.13;;
75054;SDS011;63636;44.746;10.488;2022-09-24T01:21:51;7.18;;;3.55;;
75054;SDS011;63636;44.746;10.488;2022-09-24T01:32:14;7.47;;;3.80;;
75054;SDS011;63636;44.746;10.488;2022-09-24T01:35:02;7.65;;;3.85;;
75054;SDS011;63636;44.746;10.488;2022-09-24T01:37:31;8.63;;;4.32;;
75054;SDS011;63636;44.746;10.488;2022-09-24T01:39:57;7.95;;;3.88;;
75054;SDS011;63636;44.746;10.488;2022-09-24T01:42:23;8.18;;;4.10;;
75054;SDS011;63636;44.746;10.488;2022-09-24T01:44:51;8.23;;;4.40;;
75054;SDS011;63636;44.746;10.488;2022-09-24T01:47:38;7.50;;;4.13;;
75054;SDS011;63636;44.746;10.488;2022-09-24T01:50:14;7.90;;;4.10;;
75054;SDS011;63636;44.746;10.488;2022-09-24T01:52:50;6.85;;;4.15;;
75054;SDS011;63636;44.746;10.488;2022-09-24T01:55:18;7.45;;;3.85;;
75054;SDS011;63636;44.746;10.488;2022-09-24T01:57:48;8.20;;;3.63;;
75054;SDS011;63636;44.746;10.488;2022-09-24T02:00:16;6.05;;;3.60;;
75054;SDS011;63636;44.746;10.488;2022-09-24T02:07:41;5.88;;;3.00;;
75054;SDS011;63636;44.746;10.488;2022-09-24T02:10:13;5.78;;;2.83;;
75054;SDS011;63636;44.746;10.488;2022-09-24T02:12:39;5.35;;;2.85;;
75054;SDS011;63636;44.746;10.488;2022-09-24T02:15:12;6.00;;;2.88;;
75054;SDS011;63636;44.746;10.488;2022-09-24T02:17:39;4.40;;;2.50;;
75054;SDS011;63636;44.746;10.488;2022-09-24T02:20:07;5.43;;;2.70;;
75054;SDS011;63636;44.746;10.488;2022-09-24T02:22:33;4.63;;;2.53;;
75054;SDS011;63636;44.746;10.488;2022-09-24T02:25:00;4.93;;;2.67;;
75054;SDS011;63636;44.746;10.488;2022-09-24T02:27:28;4.30;;;2.53;;
75054;SDS011;63636;44.746;10.488;2022-09-24T02:29:54;5.20;;;2.63;;
75054;SDS011;63636;44.746;10.488;2022-09-24T02:32:20;4.40;;;2.33;;
75054;SDS011;63636;44.746;10.488;2022-09-24T02:34:47;6.57;;;2.38;;
75054;SDS011;63636;44.746;10.488;2022-09-24T02:37:14;5.65;;;2.70;;
75054;SDS011;63636;44.746;10.488;2022-09-24T02:39:41;5.53;;;2.63;;
75054;SDS011;63636;44.746;10.488;2022-09-24T02:42:07;4.75;;;2.42;;
75054;SDS011;63636;44.746;10.488;2022-09-24T02:44:33;4.25;;;2.40;;
75054;SDS011;63636;44.746;10.488;2022-09-24T02:47:00;4.72;;;2.45;;
75054;SDS011;63636;44.746;10.488;2022-09-24T02:49:26;4.28;;;2.67;;
75054;SDS011;63636;44.746;10.488;2022-09-24T02:51:51;4.13;;;2.50;;
75054;SDS011;63636;44.746;10.488;2022-09-24T02:54:17;4.18;;;2.40;;
75054;SDS011;63636;44.746;10.488;2022-09-24T02:56:43;4.80;;;2.95;;
75054;SDS011;63636;44.746;10.488;2022-09-24T02:59:08;4.47;;;3.03;;
75054;SDS011;63636;44.746;10.488;2022-09-24T03:01:34;6.93;;;3.33;;
75054;SDS011;63636;44.746;10.488;2022-09-24T03:04:00;7.00;;;3.72;;
75054;SDS011;63636;44.746;10.488;2022-09-24T03:06:26;8.25;;;4.25;;
75054;SDS011;63636;44.746;10.488;2022-09-24T03:08:52;8.50;;;4.75;;
75054;SDS011;63636;44.746;10.488;2022-09-24T03:14:44;7.72;;;4.60;;
75054;SDS011;63636;44.746;10.488;2022-09-24T03:17:09;8.60;;;5.03;;
75054;SDS011;63636;44.746;10.488;2022-09-24T03:19:35;9.63;;;5.10;;
75054;SDS011;63636;44.746;10.488;2022-09-24T03:22:00;7.68;;;4.88;;
75054;SDS011;63636;44.746;10.488;2022-09-24T03:24:26;7.72;;;5.15;;
75054;SDS011;63636;44.746;10.488;2022-09-24T03:26:51;9.77;;;5.28;;
75054;SDS011;63636;44.746;10.488;2022-09-24T03:29:17;8.43;;;5.43;;
75054;SDS011;63636;44.746;10.488;2022-09-24T03:32:02;9.75;;;5.32;;
75054;SDS011;63636;44.746;10.488;2022-09-24T03:34:28;11.80;;;5.68;;
75054;SDS011;63636;44.746;10.488;2022-09-24T03:36:53;9.80;;;5.53;;
75054;SDS011;63636;44.746;10.488;2022-09-24T03:39:19;8.88;;;5.93;;
75054;SDS011;63636;44.746;10.488;2022-09-24T03:41:44;11.63;;;6.30;;
75054;SDS011;63636;44.746;10.488;2022-09-24T03:44:10;10.30;;;5.80;;
75054;SDS011;63636;44.746;10.488;2022-09-24T03:46:35;11.25;;;6.05;;
75054;SDS011;63636;44.746;10.488;2022-09-24T03:49:01;10.70;;;5.82;;
75054;SDS011;63636;44.746;10.488;2022-09-24T03:51:26;10.70;;;6.28;;
75054;SDS011;63636;44.746;10.488;2022-09-24T03:53:52;10.85;;;7.93;;
75054;SDS011;63636;44.746;10.488;2022-09-24T03:56:17;13.95;;;7.68;;
75054;SDS011;63636;44.746;10.488;2022-09-24T03:58:43;9.82;;;7.25;;
75054;SDS011;63636;44.746;10.488;2022-09-24T04:01:12;10.45;;;7.00;;
75054;SDS011;63636;44.746;10.488;2022-09-24T04:03:38;12.52;;;7.43;;
75054;SDS011;63636;44.746;10.488;2022-09-24T04:06:04;12.15;;;7.75;;
75054;SDS011;63636;44.746;10.488;2022-09-24T04:08:30;14.70;;;8.32;;
75054;SDS011;63636;44.746;10.488;2022-09-24T04:10:56;12.23;;;8.30;;
75054;SDS011;63636;44.746;10.488;2022-09-24T04:13:21;14.32;;;8.48;;
75054;SDS011;63636;44.746;10.488;2022-09-24T04:15:47;12.90;;;8.30;;
75054;SDS011;63636;44.746;10.488;2022-09-24T04:18:16;13.70;;;9.23;;
75054;SDS011;63636;44.746;10.488;2022-09-24T04:20:41;13.43;;;9.07;;
75054;SDS011;63636;44.746;10.488;2022-09-24T04:23:08;13.95;;;9.68;;
75054;SDS011;63636;44.746;10.488;2022-09-24T04:25:34;12.82;;;8.93;;
75054;SDS011;63636;44.746;10.488;2022-09-24T04:28:01;14.75;;;9.70;;
75054;SDS011;63636;44.746;10.488;2022-09-24T04:30:28;15.10;;;9.65;;
75054;SDS011;63636;44.746;10.488;2022-09-24T04:32:54;12.23;;;8.90;;
75054;SDS011;63636;44.746;10.488;2022-09-24T04:35:20;13.50;;;9.93;;
75054;SDS011;63636;44.746;10.488;2022-09-24T04:37:46;14.68;;;9.80;;
75054;SDS011;63636;44.746;10.488;2022-09-24T04:40:12;14.45;;;9.35;;
75054;SDS011;63636;44.746;10.488;2022-09-24T04:42:39;13.63;;;9.38;;
75054;SDS011;63636;44.746;10.488;2022-09-24T04:45:05;13.32;;;9.30;;
75054;SDS011;63636;44.746;10.488;2022-09-24T04:47:32;13.38;;;8.93;;
75054;SDS011;63636;44.746;10.488;2022-09-24T04:49:58;14.35;;;9.05;;
75054;SDS011;63636;44.746;10.488;2022-09-24T04:52:26;15.35;;;8.90;;
75054;SDS011;63636;44.746;10.488;2022-09-24T04:54:54;12.38;;;8.30;;
75054;SDS011;63636;44.746;10.488;2022-09-24T04:57:19;12.23;;;8.50;;
75054;SDS011;63636;44.746;10.488;2022-09-24T04:59:46;13.63;;;8.75;;
75054;SDS011;63636;44.746;10.488;2022-09-24T05:02:11;14.38;;;8.82;;
75054;SDS011;63636;44.746;10.488;2022-09-24T05:04:37;11.82;;;8.38;;
75054;SDS011;63636;44.746;10.488;2022-09-24T05:07:03;14.68;;;8.80;;
75054;SDS011;63636;44.746;10.488;2022-09-24T05:09:29;13.20;;;8.88;;
75054;SDS011;63636;44.746;10.488;2022-09-24T05:11:56;12.65;;;8.55;;
75054;SDS011;63636;44.746;10.488;2022-09-24T05:14:22;13.95;;;8.45;;
75054;SDS011;63636;44.746;10.488;2022-09-24T05:16:48;13.15;;;9.18;;
75054;SDS011;63636;44.746;10.488;2022-09-24T05:19:13;14.43;;;9.63;;
75054;SDS011;63636;44.746;10.488;2022-09-24T05:21:39;14.20;;;9.63;;
75054;SDS011;63636;44.746;10.488;2022-09-24T05:24:04;13.52;;;9.65;;
75054;SDS011;63636;44.746;10.488;2022-09-24T05:26:30;15.60;;;10.60;;
75054;SDS011;63636;44.746;10.488;2022-09-24T05:29:15;17.35;;;12.10;;
75054;SDS011;63636;44.746;10.488;2022-09-24T05:31:40;18.60;;;13.27;;
75054;SDS011;63636;44.746;10.488;2022-09-24T05:34:06;19.67;;;13.70;;
75054;SDS011;63636;44.746;10.488;2022-09-24T05:36:32;20.67;;;13.20;;
75054;SDS011;63636;44.746;10.488;2022-09-24T05:38:57;18.80;;;13.13;;
75054;SDS011;63636;44.746;10.488;2022-09-24T05:41:23;19.58;;;12.48;;
75054;SDS011;63636;44.746;10.488;2022-09-24T05:43:48;20.63;;;13.50;;
75054;SDS011;63636;44.746;10.488;2022-09-24T05:46:14;21.05;;;13.13;;
75054;SDS011;63636;44.746;10.488;2022-09-24T05:48:39;20.48;;;13.13;;
75054;SDS011;63636;44.746;10.488;2022-09-24T05:51:05;19.17;;;14.20;;
75054;SDS011;63636;44.746;10.488;2022-09-24T05:53:31;20.88;;;14.00;;
75054;SDS011;63636;44.746;10.488;2022-09-24T05:55:57;18.27;;;11.90;;
75054;SDS011;63636;44.746;10.488;2022-09-24T05:58:23;15.55;;;11.48;;
75054;SDS011;63636;44.746;10.488;2022-09-24T06:00:49;19.50;;;12.15;;
75054;SDS011;63636;44.746;10.488;2022-09-24T06:03:15;18.88;;;11.75;;
75054;SDS011;63636;44.746;10.488;2022-09-24T06:05:44;15.13;;;11.77;;
75054;SDS011;63636;44.746;10.488;2022-09-24T06:08:10;18.40;;;12.48;;
75054;SDS011;63636;44.746;10.488;2022-09-24T06:10:36;17.58;;;12.75;;
75054;SDS011;63636;44.746;10.488;2022-09-24T06:13:02;21.15;;;12.20;;
75054;SDS011;63636;44.746;10.488;2022-09-24T06:15:28;18.20;;;12.30;;
75054;SDS011;63636;44.746;10.488;2022-09-24T06:17:55;19.23;;;12.30;;
75054;SDS011;63636;44.746;10.488;2022-09-24T06:20:21;17.02;;;11.27;;
75054;SDS011;63636;44.746;10.488;2022-09-24T06:22:46;15.88;;;10.73;;
75054;SDS011;63636;44.746;10.488;2022-09-24T06:25:12;19.08;;;11.32;;
75054;SDS011;63636;44.746;10.488;2022-09-24T06:27:38;20.13;;;12.27;;
75054;SDS011;63636;44.746;10.488;2022-09-24T06:30:03;15.98;;;11.32;;
75054;SDS011;63636;44.746;10.488;2022-09-24T06:32:29;17.95;;;11.57;;
75054;SDS011;63636;44.746;10.488;2022-09-24T06:34:55;16.67;;;11.60;;
75054;SDS011;63636;44.746;10.488;2022-09-24T06:37:20;19.70;;;12.13;;
75054;SDS011;63636;44.746;10.488;2022-09-24T06:39:46;17.38;;;12.23;;
75054;SDS011;63636;44.746;10.488;2022-09-24T06:42:12;17.23;;;13.05;;
75054;SDS011;63636;44.746;10.488;2022-09-24T06:44:38;20.42;;;13.93;;
75054;SDS011;63636;44.746;10.488;2022-09-24T06:47:04;17.33;;;12.15;;
75054;SDS011;63636;44.746;10.488;2022-09-24T06:49:43;16.85;;;11.27;;
75054;SDS011;63636;44.746;10.488;2022-09-24T06:52:23;17.27;;;11.57;;
75054;SDS011;63636;44.746;10.488;2022-09-24T06:54:49;15.85;;;10.98;;
75054;SDS011;63636;44.746;10.488;2022-09-24T06:57:15;17.55;;;10.88;;
75054;SDS011;63636;44.746;10.488;2022-09-24T06:59:40;16.77;;;12.13;;
75054;SDS011;63636;44.746;10.488;2022-09-24T07:02:07;16.10;;;11.50;;
75054;SDS011;63636;44.746;10.488;2022-09-24T07:04:34;18.23;;;12.32;;
75054;SDS011;63636;44.746;10.488;2022-09-24T07:06:59;16.65;;;11.45;;
75054;SDS011;63636;44.746;10.488;2022-09-24T07:09:43;20.92;;;11.95;;
75054;SDS011;63636;44.746;10.488;2022-09-24T07:12:09;18.45;;;12.52;;
75054;SDS011;63636;44.746;10.488;2022-09-24T07:14:34;16.42;;;11.95;;
75054;SDS011;63636;44.746;10.488;2022-09-24T07:17:00;17.55;;;12.00;;
75054;SDS011;63636;44.746;10.488;2022-09-24T07:19:25;19.67;;;11.95;;
75054;SDS011;63636;44.746;10.488;2022-09-24T07:21:51;19.38;;;11.57;;
75054;SDS011;63636;44.746;10.488;2022-09-24T07:24:16;18.70;;;12.38;;
75054;SDS011;63636;44.746;10.488;2022-09-24T07:26:42;17.70;;;12.40;;
75054;SDS011;63636;44.746;10.488;2022-09-24T07:29:07;17.80;;;12.20;;
75054;SDS011;63636;44.746;10.488;2022-09-24T07:31:33;16.92;;;12.20;;
75054;SDS011;63636;44.746;10.488;2022-09-24T07:34:00;15.52;;;11.43;;
75054;SDS011;63636;44.746;10.488;2022-09-24T07:36:26;15.32;;;11.32;;
75054;SDS011;63636;44.746;10.488;2022-09-24T07:38:56;14.77;;;10.55;;
75054;SDS011;63636;44.746;10.488;2022-09-24T07:41:21;15.43;;;11.45;;
75054;SDS011;63636;44.746;10.488;2022-09-24T07:43:47;15.40;;;11.52;;
75054;SDS011;63636;44.746;10.488;2022-09-24T07:46:12;16.52;;;10.85;;
75054;SDS011;63636;44.746;10.488;2022-09-24T07:48:38;15.50;;;10.48;;
75054;SDS011;63636;44.746;10.488;2022-09-24T07:51:04;16.25;;;11.20;;
75054;SDS011;63636;44.746;10.488;2022-09-24T07:53:33;17.30;;;10.65;;
75054;SDS011;63636;44.746;10.488;2022-09-24T07:55:59;15.25;;;10.18;;
75054;SDS011;63636;44.746;10.488;2022-09-24T07:58:25;17.58;;;10.40;;
75054;SDS011;63636;44.746;10.488;2022-09-24T08:00:51;13.75;;;9.68;;
75054;SDS011;63636;44.746;10.488;2022-09-24T08:03:16;14.07;;;9.32;;
75054;SDS011;63636;44.746;10.488;2022-09-24T08:05:43;14.80;;;9.60;;
75054;SDS011;63636;44.746;10.488;2022-09-24T08:08:09;16.25;;;9.60;;
75054;SDS011;63636;44.746;10.488;2022-09-24T08:10:35;14.23;;;9.70;;
75054;SDS011;63636;44.746;10.488;2022-09-24T08:13:02;15.05;;;9.80;;
75054;SDS011;63636;44.746;10.488;2022-09-24T08:15:46;17.30;;;9.77;;
75054;SDS011;63636;44.746;10.488;2022-09-24T08:18:12;15.63;;;10.32;;
75054;SDS011;63636;44.746;10.488;2022-09-24T08:20:37;14.57;;;9.95;;
75054;SDS011;63636;44.746;10.488;2022-09-24T08:23:04;13.80;;;10.40;;
75054;SDS011;63636;44.746;10.488;2022-09-24T08:25:29;13.60;;;9.75;;
75054;SDS011;63636;44.746;10.488;2022-09-24T08:28:05;14.77;;;10.45;;
75054;SDS011;63636;44.746;10.488;2022-09-24T08:30:31;17.30;;;11.00;;
75054;SDS011;63636;44.746;10.488;2022-09-24T08:32:58;18.45;;;10.13;;
75054;SDS011;63636;44.746;10.488;2022-09-24T08:35:23;15.13;;;9.73;;
75054;SDS011;63636;44.746;10.488;2022-09-24T08:37:51;14.15;;;8.98;;
75054;SDS011;63636;44.746;10.488;2022-09-24T08:40:20;13.73;;;8.77;;
75054;SDS011;63636;44.746;10.488;2022-09-24T08:42:50;14.60;;;8.85;;
75054;SDS011;63636;44.746;10.488;2022-09-24T08:45:19;15.40;;;10.15;;
75054;SDS011;63636;44.746;10.488;2022-09-24T08:48:19;16.67;;;11.05;;
75054;SDS011;63636;44.746;10.488;2022-09-24T08:51:22;14.02;;;9.27;;
75054;SDS011;63636;44.746;10.488;2022-09-24T08:56:23;15.93;;;10.80;;
75054;SDS011;63636;44.746;10.488;2022-09-24T08:58:58;14.98;;;10.23;;
75054;SDS011;63636;44.746;10.488;2022-09-24T09:01:44;18.27;;;10.98;;
75054;SDS011;63636;44.746;10.488;2022-09-24T09:09:29;14.60;;;9.75;;
75054;SDS011;63636;44.746;10.488;2022-09-24T09:11:58;14.35;;;10.32;;
75054;SDS011;63636;44.746;10.488;2022-09-24T09:19:52;14.13;;;9.63;;
75054;SDS011;63636;44.746;10.488;2022-09-24T09:22:20;13.63;;;9.68;;
75054;SDS011;63636;44.746;10.488;2022-09-24T09:24:48;15.40;;;10.07;;
75054;SDS011;63636;44.746;10.488;2022-09-24T09:27:15;15.65;;;10.05;;
75054;SDS011;63636;44.746;10.488;2022-09-24T09:29:41;17.88;;;10.35;;
75054;SDS011;63636;44.746;10.488;2022-09-24T09:37:43;18.48;;;12.63;;
75054;SDS011;63636;44.746;10.488;2022-09-24T09:40:16;20.83;;;12.82;;
75054;SDS011;63636;44.746;10.488;2022-09-24T09:42:45;19.95;;;12.75;;
75054;SDS011;63636;44.746;10.488;2022-09-24T09:45:21;19.17;;;13.98;;
75054;SDS011;63636;44.746;10.488;2022-09-24T09:47:49;18.45;;;12.88;;
75054;SDS011;63636;44.746;10.488;2022-09-24T09:52:52;20.20;;;14.00;;
75054;SDS011;63636;44.746;10.488;2022-09-24T09:55:20;19.50;;;12.77;;
75054;SDS011;63636;44.746;10.488;2022-09-24T09:57:46;19.52;;;14.18;;
75054;SDS011;63636;44.746;10.488;2022-09-24T10:00:22;20.10;;;14.13;;
75054;SDS011;63636;44.746;10.488;2022-09-24T10:02:49;20.27;;;13.80;;
75054;SDS011;63636;44.746;10.488;2022-09-24T10:05:19;21.52;;;13.25;;
75054;SDS011;63636;44.746;10.488;2022-09-24T10:07:45;20.00;;;12.85;;
75054;SDS011;63636;44.746;10.488;2022-09-24T10:10:17;20.58;;;13.50;;
75054;SDS011;63636;44.746;10.488;2022-09-24T10:12:43;28.15;;;16.42;;
75054;SDS011;63636;44.746;10.488;2022-09-24T10:15:16;18.75;;;13.27;;
75054;SDS011;63636;44.746;10.488;2022-09-24T10:17:42;19.15;;;12.30;;
75054;SDS011;63636;44.746;10.488;2022-09-24T10:20:20;18.38;;;13.10;;
75054;SDS011;63636;44.746;10.488;2022-09-24T10:22:50;18.13;;;12.52;;
75054;SDS011;63636;44.746;10.488;2022-09-24T10:25:21;17.40;;;12.10;;
75054;SDS011;63636;44.746;10.488;2022-09-24T10:27:54;15.38;;;11.40;;
75054;SDS011;63636;44.746;10.488;2022-09-24T10:30:48;19.20;;;10.63;;
75054;SDS011;63636;44.746;10.488;2022-09-24T10:33:15;16.55;;;9.77;;
75054;SDS011;63636;44.746;10.488;2022-09-24T10:35:42;14.57;;;9.02;;
75054;SDS011;63636;44.746;10.488;2022-09-24T10:38:20;13.02;;;8.25;;
75054;SDS011;63636;44.746;10.488;2022-09-24T10:40:48;16.17;;;8.27;;
75054;SDS011;63636;44.746;10.488;2022-09-24T10:43:22;10.48;;;7.10;;
75054;SDS011;63636;44.746;10.488;2022-09-24T10:48:26;12.15;;;6.72;;
75054;SDS011;63636;44.746;10.488;2022-09-24T10:56:06;13.60;;;8.00;;
75054;SDS011;63636;44.746;10.488;2022-09-24T10:58:43;11.65;;;7.22;;
75054;SDS011;63636;44.746;10.488;2022-09-24T11:01:21;12.68;;;7.32;;
75054;SDS011;63636;44.746;10.488;2022-09-24T11:03:59;11.50;;;7.38;;
75054;SDS011;63636;44.746;10.488;2022-09-24T11:21:33;15.52;;;10.77;;
75054;SDS011;63636;44.746;10.488;2022-09-24T11:41:44;16.00;;;11.35;;
75054;SDS011;63636;44.746;10.488;2022-09-24T11:47:01;17.50;;;11.93;;
75054;SDS011;63636;44.746;10.488;2022-09-24T11:54:48;17.38;;;11.77;;
75054;SDS011;63636;44.746;10.488;2022-09-24T12:02:19;17.95;;;12.65;;
75054;SDS011;63636;44.746;10.488;2022-09-24T12:07:31;16.58;;;12.18;;
75054;SDS011;63636;44.746;10.488;2022-09-24T12:10:01;17.02;;;12.32;;
75054;SDS011;63636;44.746;10.488;2022-09-24T12:12:30;19.27;;;12.70;;
75054;SDS011;63636;44.746;10.488;2022-09-24T12:15:04;17.55;;;12.77;;
75054;SDS011;63636;44.746;10.488;2022-09-24T12:22:40;18.33;;;12.88;;
75054;SDS011;63636;44.746;10.488;2022-09-24T12:25:09;17.35;;;12.30;;
75054;SDS011;63636;44.746;10.488;2022-09-24T12:27:37;17.33;;;12.65;;
75054;SDS011;63636;44.746;10.488;2022-09-24T12:42:53;20.42;;;13.57;;
75054;SDS011;63636;44.746;10.488;2022-09-24T12:45:21;16.70;;;12.73;;
75054;SDS011;63636;44.746;10.488;2022-09-24T12:47:48;15.23;;;11.48;;
75054;SDS011;63636;44.746;10.488;2022-09-24T12:50:18;14.85;;;10.88;;
75054;SDS011;63636;44.746;10.488;2022-09-24T12:52:44;15.18;;;10.43;;
75054;SDS011;63636;44.746;10.488;2022-09-24T12:55:18;15.70;;;10.73;;
75054;SDS011;63636;44.746;10.488;2022-09-24T12:57:54;14.95;;;11.05;;
75054;SDS011;63636;44.746;10.488;2022-09-24T13:03:02;15.48;;;11.68;;
75054;SDS011;63636;44.746;10.488;2022-09-24T13:05:45;16.15;;;11.80;;
75054;SDS011;63636;44.746;10.488;2022-09-24T13:10:54;15.55;;;11.43;;
75054;SDS011;63636;44.746;10.488;2022-09-24T13:13:27;15.68;;;12.02;;
75054;SDS011;63636;44.746;10.488;2022-09-24T13:16:03;14.82;;;10.65;;
75054;SDS011;63636;44.746;10.488;2022-09-24T13:18:30;15.65;;;11.25;;
75054;SDS011;63636;44.746;10.488;2022-09-24T13:21:03;17.70;;;10.98;;
75054;SDS011;63636;44.746;10.488;2022-09-24T13:23:31;16.75;;;11.10;;
75054;SDS011;63636;44.746;10.488;2022-09-24T13:28:27;17.15;;;11.40;;
75054;SDS011;63636;44.746;10.488;2022-09-24T13:33:42;15.90;;;11.27;;
75054;SDS011;63636;44.746;10.488;2022-09-24T13:44:12;19.05;;;12.90;;
75054;SDS011;63636;44.746;10.488;2022-09-24T13:46:40;18.35;;;12.93;;
75054;SDS011;63636;44.746;10.488;2022-09-24T13:49:08;16.95;;;12.77;;
75054;SDS011;63636;44.746;10.488;2022-09-24T13:51:36;17.55;;;13.05;;
75054;SDS011;63636;44.746;10.488;2022-09-24T13:54:09;18.33;;;14.00;;
75054;SDS011;63636;44.746;10.488;2022-09-24T13:56:37;17.88;;;12.75;;
75054;SDS011;63636;44.746;10.488;2022-09-24T13:59:03;17.88;;;12.45;;
75054;SDS011;63636;44.746;10.488;2022-09-24T14:01:34;18.55;;;13.32;;
75054;SDS011;63636;44.746;10.488;2022-09-24T14:04:03;18.13;;;13.27;;
75054;SDS011;63636;44.746;10.488;2022-09-24T14:06:37;18.88;;;14.82;;
75054;SDS011;63636;44.746;10.488;2022-09-24T14:12:00;21.60;;;15.35;;
75054;SDS011;63636;44.746;10.488;2022-09-24T14:14:28;21.20;;;15.20;;
75054;SDS011;63636;44.746;10.488;2022-09-24T14:17:04;19.15;;;14.77;;
75054;SDS011;63636;44.746;10.488;2022-09-24T14:19:30;21.13;;;14.70;;
75054;SDS011;63636;44.746;10.488;2022-09-24T14:21:59;19.05;;;14.93;;
75054;SDS011;63636;44.746;10.488;2022-09-24T14:24:26;19.35;;;15.18;;
75054;SDS011;63636;44.746;10.488;2022-09-24T14:26:54;20.25;;;14.90;;
75054;SDS011;63636;44.746;10.488;2022-09-24T14:29:25;21.70;;;15.32;;
75054;SDS011;63636;44.746;10.488;2022-09-24T14:31:53;19.40;;;15.52;;
75054;SDS011;63636;44.746;10.488;2022-09-24T14:34:27;20.25;;;15.60;;
75054;SDS011;63636;44.746;10.488;2022-09-24T14:36:55;21.65;;;15.60;;
75054;SDS011;63636;44.746;10.488;2022-09-24T14:39:23;20.45;;;14.70;;
75054;SDS011;63636;44.746;10.488;2022-09-24T14:41:50;20.35;;;14.68;;
75054;SDS011;63636;44.746;10.488;2022-09-24T14:44:19;25.52;;;15.30;;
75054;SDS011;63636;44.746;10.488;2022-09-24T14:46:49;22.13;;;14.80;;
75054;SDS011;63636;44.746;10.488;2022-09-24T14:49:20;22.40;;;15.23;;
75054;SDS011;63636;44.746;10.488;2022-09-24T14:51:49;17.85;;;14.80;;
75054;SDS011;63636;44.746;10.488;2022-09-24T14:54:34;20.55;;;15.13;;
75054;SDS011;63636;44.746;10.488;2022-09-24T14:59:36;19.17;;;15.60;;
75054;SDS011;63636;44.746;10.488;2022-09-24T15:02:24;19.52;;;15.20;;
75054;SDS011;63636;44.746;10.488;2022-09-24T15:04:52;21.73;;;15.88;;
75054;SDS011;63636;44.746;10.488;2022-09-24T15:07:23;19.27;;;14.48;;
75054;SDS011;63636;44.746;10.488;2022-09-24T15:09:49;20.40;;;15.50;;
75054;SDS011;63636;44.746;10.488;2022-09-24T15:12:19;21.42;;;15.50;;
75054;SDS011;63636;44.746;10.488;2022-09-24T15:14:52;22.20;;;16.30;;
75054;SDS011;63636;44.746;10.488;2022-09-24T15:17:20;18.27;;;15.10;;
75054;SDS011;63636;44.746;10.488;2022-09-24T15:19:46;22.02;;;15.73;;
75054;SDS011;63636;44.746;10.488;2022-09-24T15:22:11;20.50;;;15.85;;
75054;SDS011;63636;44.746;10.488;2022-09-24T15:24:37;21.20;;;15.65;;
75054;SDS011;63636;44.746;10.488;2022-09-24T15:29:50;22.98;;;16.85;;
75054;SDS011;63636;44.746;10.488;2022-09-24T15:32:18;21.55;;;16.52;;
75054;SDS011;63636;44.746;10.488;2022-09-24T15:34:45;22.13;;;16.63;;
75054;SDS011;63636;44.746;10.488;2022-09-24T15:37:13;22.05;;;16.58;;
75054;SDS011;63636;44.746;10.488;2022-09-24T15:39:39;21.98;;;16.40;;
75054;SDS011;63636;44.746;10.488;2022-09-24T15:42:19;20.67;;;15.65;;
75054;SDS011;63636;44.746;10.488;2022-09-24T15:44:46;23.42;;;16.63;;
75054;SDS011;63636;44.746;10.488;2022-09-24T15:47:12;21.52;;;16.58;;
75054;SDS011;63636;44.746;10.488;2022-09-24T15:49:39;22.13;;;16.30;;
75054;SDS011;63636;44.746;10.488;2022-09-24T15:52:10;20.88;;;15.77;;
75054;SDS011;63636;44.746;10.488;2022-09-24T15:54:39;22.30;;;16.63;;
75054;SDS011;63636;44.746;10.488;2022-09-24T15:57:06;20.98;;;15.43;;
75054;SDS011;63636;44.746;10.488;2022-09-24T15:59:38;22.40;;;17.05;;
75054;SDS011;63636;44.746;10.488;2022-09-24T16:02:17;22.52;;;17.50;;
75054;SDS011;63636;44.746;10.488;2022-09-24T16:04:46;25.63;;;19.52;;
75054;SDS011;63636;44.746;10.488;2022-09-24T16:07:13;23.75;;;17.92;;
75054;SDS011;63636;44.746;10.488;2022-09-24T16:09:42;24.77;;;18.45;;
75054;SDS011;63636;44.746;10.488;2022-09-24T16:12:18;26.33;;;19.27;;
75054;SDS011;63636;44.746;10.488;2022-09-24T16:14:45;25.58;;;19.40;;
75054;SDS011;63636;44.746;10.488;2022-09-24T16:17:12;26.05;;;19.48;;
75054;SDS011;63636;44.746;10.488;2022-09-24T16:19:39;24.08;;;18.38;;
75054;SDS011;63636;44.746;10.488;2022-09-24T16:22:07;24.98;;;19.65;;
75054;SDS011;63636;44.746;10.488;2022-09-24T16:24:35;26.00;;;18.83;;
75054;SDS011;63636;44.746;10.488;2022-09-24T16:27:01;22.95;;;18.05;;
75054;SDS011;63636;44.746;10.488;2022-09-24T16:29:27;25.17;;;19.33;;
75054;SDS011;63636;44.746;10.488;2022-09-24T16:31:53;25.23;;;18.77;;
75054;SDS011;63636;44.746;10.488;2022-09-24T16:34:20;23.90;;;18.13;;
75054;SDS011;63636;44.746;10.488;2022-09-24T16:36:45;24.55;;;19.15;;
75054;SDS011;63636;44.746;10.488;2022-09-24T16:39:11;22.95;;;17.70;;
75054;SDS011;63636;44.746;10.488;2022-09-24T16:41:39;24.45;;;18.42;;
75054;SDS011;63636;44.746;10.488;2022-09-24T16:44:05;22.90;;;17.75;;
75054;SDS011;63636;44.746;10.488;2022-09-24T16:46:31;24.30;;;18.17;;
75054;SDS011;63636;44.746;10.488;2022-09-24T16:48:56;23.88;;;18.42;;